Time;durP1;ratioP1;P1;durP2;ratioP2;P2;SDS_P1;SDS_P2;PMS_P1;PMS_P2;Temp;Humidity;BMP_temperature;BMP_pressure;BME280_temperature;BME280_humidity;BME280_pressure;Samples;Min_cycle;Max_cycle;Signal;HPM_P1;HPM_P2
2022/07/23 00:00:25;;;;;;;9.52;8.13;;;;;;;21.68;56.42;100361.16;5012492;28;20032;-73
2022/07/23 00:02:50;;;;;;;9.85;7.55;;;;;;;21.68;56.48;100373.53;5012770;28;20029;-74
2022/07/23 00:05:15;;;;;;;9.55;7.57;;;;;;;21.67;56.31;100372.00;5012519;28;20029;-73
2022/07/23 00:07:41;;;;;;;11.38;8.40;;;;;;;21.64;56.48;100375.25;5012395;28;20463;-74
2022/07/23 00:10:08;;;;;;;9.68;7.95;;;;;;;21.61;56.62;100371.38;5013609;28;20036;-75
2022/07/23 00:12:49;;;;;;;11.50;8.40;;;;;;;21.61;56.62;100383.00;4995176;28;20395;-74
2022/07/23 00:15:14;;;;;;;9.97;8.03;;;;;;;21.55;56.47;100378.66;5016449;28;20030;-75
2022/07/23 00:17:39;;;;;;;12.13;8.50;;;;;;;21.54;56.65;100377.09;5016359;28;20052;-74
2022/07/23 00:20:11;;;;;;;12.23;8.35;;;;;;;21.46;56.53;100379.16;5017075;28;20487;-73
2022/07/23 00:22:36;;;;;;;10.15;8.40;;;;;;;21.40;56.44;100378.50;5016407;28;20038;-74
2022/07/23 00:25:04;;;;;;;9.75;7.63;;;;;;;21.35;56.46;100382.31;5016688;28;20360;-75
2022/07/23 00:27:30;;;;;;;13.02;8.55;;;;;;;21.26;56.75;100374.88;5015669;28;20033;-74
2022/07/23 00:29:57;;;;;;;9.10;7.38;;;;;;;21.22;57.08;100389.00;4999649;28;20030;-73
2022/07/23 00:32:22;;;;;;;13.73;8.18;;;;;;;21.18;57.88;100388.56;5016917;28;20038;-73
2022/07/23 00:34:48;;;;;;;10.95;8.00;;;;;;;21.17;57.39;100395.72;5016294;28;20114;-74
2022/07/23 00:37:17;;;;;;;11.15;8.15;;;;;;;21.07;58.61;100380.13;5015114;28;20368;-73
2022/07/23 00:39:46;;;;;;;13.40;8.60;;;;;;;21.19;58.62;100390.13;5016325;28;20161;-74
2022/07/23 00:42:12;;;;;;;9.68;7.70;;;;;;;21.18;60.26;100400.19;5016070;28;20103;-73
2022/07/23 00:44:38;;;;;;;10.00;7.50;;;;;;;21.25;61.06;100387.84;5016224;28;20033;-73
2022/07/23 00:47:05;;;;;;;10.20;8.00;;;;;;;21.32;60.30;100400.91;5015767;28;20118;-73
2022/07/23 00:49:33;;;;;;;13.68;9.05;;;;;;;21.39;59.62;100394.38;5017163;28;20037;-73
2022/07/23 00:52:08;;;;;;;10.07;8.77;;;;;;;21.34;59.04;100395.28;5016794;28;20137;-74
2022/07/23 00:54:36;;;;;;;11.88;10.25;;;;;;;21.26;59.12;100395.22;5015608;28;20034;-73
2022/07/23 00:57:10;;;;;;;12.95;8.25;;;;;;;21.22;58.99;100398.50;5017029;28;20032;-75
2022/07/23 00:59:38;;;;;;;10.70;7.90;;;;;;;21.18;59.25;100400.19;5015876;28;20025;-74
2022/07/23 01:02:05;;;;;;;11.07;8.90;;;;;;;21.13;59.23;100401.91;4999592;28;20038;-75
2022/07/23 01:04:31;;;;;;;11.13;8.88;;;;;;;21.05;58.83;100392.31;5016674;28;20030;-74
2022/07/23 01:07:01;;;;;;;11.23;9.05;;;;;;;20.95;59.13;100384.63;5015409;28;20029;-74
2022/07/23 01:09:28;;;;;;;11.88;9.02;;;;;;;20.90;59.41;100386.31;5016568;28;20141;-74
2022/07/23 01:11:55;;;;;;;11.15;9.02;;;;;;;20.87;59.38;100386.66;5016712;28;20029;-74
2022/07/23 01:14:21;;;;;;;10.63;8.80;;;;;;;20.85;59.42;100381.41;4999097;28;20034;-75
2022/07/23 01:16:52;;;;;;;12.57;9.07;;;;;;;20.82;59.65;100388.38;5013999;28;20112;-75
2022/07/23 01:19:18;;;;;;;10.23;9.07;;;;;;;20.79;59.70;100380.78;5015175;28;20026;-75
2022/07/23 01:21:51;;;;;;;13.65;9.20;;;;;;;20.76;59.88;100391.41;4997625;28;20128;-74
2022/07/23 01:24:19;;;;;;;11.65;9.75;;;;;;;20.72;60.05;100390.19;5013820;28;20372;-74
2022/07/23 01:26:47;;;;;;;12.23;8.90;;;;;;;20.68;59.83;100387.59;4981905;28;20471;-73
2022/07/23 01:29:19;;;;;;;10.48;9.10;;;;;;;20.65;60.23;100390.81;5013826;28;20030;-74
2022/07/23 01:31:44;;;;;;;11.70;8.85;;;;;;;20.60;60.45;100383.81;5015225;28;20030;-74
2022/07/23 01:34:13;;;;;;;12.95;8.90;;;;;;;20.57;60.45;100392.88;5015223;28;20096;-74
2022/07/23 01:36:45;;;;;;;11.98;8.98;;;;;;;20.48;61.07;100379.59;5014777;28;20038;-74
2022/07/23 01:39:10;;;;;;;15.32;10.30;;;;;;;20.44;61.47;100384.19;5014740;28;20041;-75
2022/07/23 01:41:35;;;;;;;12.48;9.85;;;;;;;20.36;61.58;100390.66;5015030;28;20025;-73
2022/07/23 01:44:01;;;;;;;13.43;9.48;;;;;;;20.32;61.63;100389.44;5013603;28;20033;-73
2022/07/23 01:46:26;;;;;;;9.52;8.32;;;;;;;20.27;61.62;100385.31;5013399;28;20168;-74
2022/07/23 01:48:52;;;;;;;12.48;9.60;;;;;;;20.23;62.10;100392.78;5015877;28;20053;-74
2022/07/23 01:51:18;;;;;;;11.02;8.80;;;;;;;20.23;63.09;100392.78;5015900;28;20471;-74
2022/07/23 01:53:45;;;;;;;12.18;9.32;;;;;;;20.22;62.71;100391.22;5016001;28;20030;-74
2022/07/23 01:56:10;;;;;;;12.80;8.45;;;;;;;20.21;62.34;100386.75;5014656;28;20030;-74
2022/07/23 01:58:35;;;;;;;10.60;8.75;;;;;;;20.17;62.15;100374.72;5015575;28;20026;-74
2022/07/23 02:01:01;;;;;;;10.15;8.90;;;;;;;20.14;61.71;100381.63;5014481;28;20102;-75
2022/07/23 02:03:26;;;;;;;11.50;8.40;;;;;;;20.09;61.98;100370.94;5014656;28;20486;-74
2022/07/23 02:05:53;;;;;;;14.15;9.23;;;;;;;20.10;61.97;100369.59;5014335;28;20038;-74
2022/07/23 02:08:19;;;;;;;10.07;8.98;;;;;;;20.07;61.75;100365.69;5014517;28;20033;-74
2022/07/23 02:10:46;;;;;;;11.60;8.75;;;;;;;20.03;62.34;100368.13;5015812;28;20100;-74
2022/07/23 02:13:12;;;;;;;11.48;8.75;;;;;;;20.04;62.31;100366.03;5015333;28;20053;-76
2022/07/23 02:15:37;;;;;;;13.15;9.60;;;;;;;20.06;62.14;100354.63;5014000;28;20372;-74
2022/07/23 02:18:05;;;;;;;12.48;9.15;;;;;;;20.04;62.29;100355.19;5015216;28;20121;-75
2022/07/23 02:20:31;;;;;;;11.35;8.57;;;;;;;20.05;63.55;100370.50;4997931;28;20474;-74
2022/07/23 02:22:58;;;;;;;11.32;9.10;;;;;;;20.06;63.44;100363.31;5015556;28;20033;-74
2022/07/23 02:25:24;;;;;;;12.25;9.07;;;;;;;20.06;63.02;100367.00;5015438;28;20121;-74
2022/07/23 02:27:51;;;;;;;10.73;8.88;;;;;;;20.03;62.60;100362.34;5015002;28;20025;-74
2022/07/23 02:30:16;;;;;;;11.63;8.88;;;;;;;20.05;62.57;100367.59;5014140;28;20463;-74
2022/07/23 02:32:43;;;;;;;10.80;9.45;;;;;;;20.06;62.69;100369.91;5014875;28;20526;-74
2022/07/23 02:35:09;;;;;;;11.55;9.38;;;;;;;20.07;62.80;100367.78;5015286;28;20490;-73
2022/07/23 02:37:34;;;;;;;14.45;9.70;;;;;;;20.00;62.61;100359.78;5013408;28;20125;-74
2022/07/23 02:40:01;;;;;;;12.23;9.30;;;;;;;20.01;62.69;100347.59;5015078;28;20116;-74
2022/07/23 02:42:26;;;;;;;11.48;9.43;;;;;;;20.04;62.69;100352.28;5015162;28;20034;-75
2022/07/23 02:44:52;;;;;;;11.15;8.63;;;;;;;20.03;62.70;100356.53;5015021;28;20032;-74
2022/07/23 02:47:18;;;;;;;13.73;8.77;;;;;;;20.01;62.57;100341.78;5014510;28;20127;-74
2022/07/23 02:49:45;;;;;;;11.95;9.07;;;;;;;20.04;62.66;100346.50;5015091;28;20101;-74
2022/07/23 02:52:11;;;;;;;12.75;9.80;;;;;;;20.06;62.57;100348.81;5014663;28;20032;-75
2022/07/23 02:54:37;;;;;;;12.00;9.43;;;;;;;20.06;62.55;100343.78;5014967;28;20033;-73
2022/07/23 02:57:05;;;;;;;14.07;10.20;;;;;;;20.06;62.73;100340.91;5014735;28;20463;-73
2022/07/23 02:59:30;;;;;;;13.00;9.35;;;;;;;20.09;62.56;100353.53;5013639;28;20095;-74
2022/07/23 03:01:57;;;;;;;12.95;9.43;;;;;;;20.07;62.54;100354.06;5013605;28;20467;-74
2022/07/23 03:04:22;;;;;;;14.05;9.93;;;;;;;20.16;62.60;100349.94;4996774;28;20116;-74
2022/07/23 03:06:47;;;;;;;9.75;8.27;;;;;;;20.18;62.69;100356.75;5013400;28;20073;-74
2022/07/23 03:09:14;;;;;;;11.95;9.90;;;;;;;20.22;62.60;100356.41;5013766;28;20072;-74
2022/07/23 03:11:48;;;;;;;11.15;8.85;;;;;;;20.23;62.30;100360.88;5014518;28;20025;-74
2022/07/23 03:14:16;;;;;;;15.63;9.88;;;;;;;20.26;62.14;100366.31;5014361;28;20109;-75
2022/07/23 03:16:42;;;;;;;12.20;9.90;;;;;;;20.30;62.56;100369.66;5014067;28;20038;-75
2022/07/23 03:19:08;;;;;;;13.05;9.48;;;;;;;20.34;63.39;100363.53;5013905;28;20042;-75
2022/07/23 03:21:38;;;;;;;13.20;9.07;;;;;;;20.43;63.26;100359.38;5014072;28;20036;-75
2022/07/23 03:24:05;;;;;;;14.60;9.38;;;;;;;20.53;62.52;100366.28;5013621;28;20572;-74
2022/07/23 03:26:31;;;;;;;13.90;9.10;;;;;;;20.56;62.61;100365.16;5013183;28;20073;-74
2022/07/23 03:28:57;;;;;;;11.45;9.13;;;;;;;20.62;61.77;100366.59;5014047;28;20029;-73
2022/07/23 03:31:23;;;;;;;13.18;9.07;;;;;;;20.67;61.34;100362.00;5014266;28;20075;-73
2022/07/23 03:33:49;;;;;;;12.85;9.65;;;;;;;20.68;61.09;100351.97;5014227;28;20041;-74
2022/07/23 03:36:16;;;;;;;13.77;10.00;;;;;;;20.81;61.04;100367.25;5014246;28;20464;-74
2022/07/23 03:38:41;;;;;;;11.10;9.50;;;;;;;20.90;60.78;100368.09;5014039;28;20120;-75
2022/07/23 03:41:08;;;;;;;12.68;9.77;;;;;;;20.99;60.65;100368.41;5013999;28;20105;-74
2022/07/23 03:43:33;;;;;;;15.52;9.10;;;;;;;21.10;60.08;100370.25;5014094;28;20030;-74
2022/07/23 03:46:00;;;;;;;17.13;9.52;;;;;;;21.18;60.14;100366.09;5012926;28;20045;-74
2022/07/23 03:48:27;;;;;;;21.35;9.90;;;;;;;21.20;59.60;100362.63;5012900;28;20071;-74
2022/07/23 03:50:53;;;;;;;28.98;9.75;;;;;;;21.38;59.64;100373.28;5014047;28;20104;-75
2022/07/23 03:53:18;;;;;;;20.92;10.10;;;;;;;21.50;59.22;100365.03;4996303;28;20471;-74
2022/07/23 03:55:44;;;;;;;19.48;9.30;;;;;;;21.61;58.91;100373.47;5013796;28;20030;-74
2022/07/23 03:58:10;;;;;;;13.07;9.65;;;;;;;21.73;58.79;100374.72;5013998;28;20030;-74
2022/07/23 04:00:35;;;;;;;13.02;9.18;;;;;;;21.86;58.34;100377.56;5013939;28;20052;-75
2022/07/23 04:03:01;;;;;;;11.25;9.45;;;;;;;22.00;57.65;100370.28;5013806;28;20463;-74
2022/07/23 04:05:27;;;;;;;12.52;9.45;;;;;;;22.16;57.68;100374.06;5013801;28;20030;-74
2022/07/23 04:07:54;;;;;;;11.73;9.15;;;;;;;22.31;57.18;100373.41;5013638;28;20484;-74
2022/07/23 04:10:20;;;;;;;14.13;9.75;;;;;;;22.49;56.45;100363.59;5013760;28;20490;-74
2022/07/23 04:12:45;;;;;;;11.43;9.02;;;;;;;22.65;56.29;100359.38;5013715;28;20057;-74
2022/07/23 04:15:11;;;;;;;13.73;10.50;;;;;;;22.84;55.31;100354.00;5013870;28;20038;-74
2022/07/23 04:17:37;;;;;;;13.43;9.15;;;;;;;22.96;55.39;100351.56;5011911;28;20053;-74
2022/07/23 04:20:03;;;;;;;11.43;9.57;;;;;;;23.03;54.49;100342.03;5013658;28;20045;-73
2022/07/23 04:22:30;;;;;;;14.05;9.48;;;;;;;23.00;54.40;100348.25;4996030;28;20046;-73
2022/07/23 04:24:56;;;;;;;15.65;10.60;;;;;;;23.07;54.36;100333.69;5012672;28;20036;-73
2022/07/23 04:27:22;;;;;;;11.70;9.50;;;;;;;23.08;54.28;100340.28;5010857;28;20038;-73
2022/07/23 04:29:47;;;;;;;12.00;9.10;;;;;;;23.13;54.31;100331.34;5002802;28;20030;-72
2022/07/23 04:32:13;;;;;;;12.10;9.38;;;;;;;23.15;53.51;100334.47;5012790;28;20037;-72
2022/07/23 04:34:38;;;;;;;10.68;9.57;;;;;;;23.19;53.77;100316.59;5011167;28;20026;-73
2022/07/23 04:37:04;;;;;;;9.90;8.40;;;;;;;23.26;54.02;100318.75;5009041;28;20030;-73
2022/07/23 04:39:30;;;;;;;12.38;8.48;;;;;;;23.26;53.49;100322.41;5007770;28;20021;-73
2022/07/23 04:41:55;;;;;;;12.82;9.43;;;;;;;23.37;53.52;100315.44;5012326;28;20037;-73
2022/07/23 04:44:22;;;;;;;10.85;8.82;;;;;;;23.48;53.32;100320.09;5012271;28;20426;-73
2022/07/23 04:46:49;;;;;;;11.57;9.25;;;;;;;23.58;52.91;100301.44;5009085;28;20053;-73
2022/07/23 04:49:15;;;;;;;10.57;9.02;;;;;;;23.74;52.82;100313.88;5006793;28;20026;-73
2022/07/23 04:51:42;;;;;;;11.80;9.55;;;;;;;23.87;52.23;100307.03;5011789;28;20046;-73
2022/07/23 04:54:07;;;;;;;16.23;8.73;;;;;;;24.07;52.15;100308.94;5011771;28;20034;-73
2022/07/23 04:56:34;;;;;;;11.02;8.18;;;;;;;24.21;51.92;100305.22;5010970;28;20030;-73
2022/07/23 04:59:00;;;;;;;12.75;8.65;;;;;;;24.21;51.59;100293.53;5012308;28;20030;-73
2022/07/23 05:01:26;;;;;;;11.63;9.88;;;;;;;24.19;51.24;100287.50;5015668;28;20084;-73
2022/07/23 05:03:52;;;;;;;11.10;9.00;;;;;;;24.19;51.38;100292.56;5015822;28;20042;-73
2022/07/23 05:06:17;;;;;;;12.50;9.98;;;;;;;24.21;51.43;100292.72;5015789;28;20108;-73
2022/07/23 05:08:43;;;;;;;12.82;9.77;;;;;;;24.34;50.93;100285.91;5015666;28;20026;-73
2022/07/23 05:11:09;;;;;;;12.68;9.13;;;;;;;24.34;51.06;100280.84;5015641;28;20018;-74
2022/07/23 05:13:34;;;;;;;12.73;10.18;;;;;;;24.29;51.35;100278.91;5015671;28;20022;-73
2022/07/23 05:16:02;;;;;;;10.27;8.60;;;;;;;24.20;51.72;100264.88;5015368;28;20050;-74
2022/07/23 05:18:28;;;;;;;13.05;9.63;;;;;;;24.21;51.64;100260.59;5015524;28;20056;-74
2022/07/23 05:20:53;;;;;;;11.90;9.23;;;;;;;24.24;51.22;100256.53;5015416;28;20466;-73
2022/07/23 05:23:19;;;;;;;13.13;8.95;;;;;;;24.35;51.27;100259.00;5015962;28;20033;-73
2022/07/23 05:25:45;;;;;;;9.60;8.38;;;;;;;24.44;51.01;100257.63;5016563;28;20112;-74
2022/07/23 05:28:11;;;;;;;11.77;8.35;;;;;;;24.54;50.37;100253.44;5016201;28;20110;-73
2022/07/23 05:30:38;;;;;;;9.70;8.10;;;;;;;24.70;50.60;100245.38;5016482;28;20036;-73
2022/07/23 05:33:03;;;;;;;10.32;8.88;;;;;;;24.93;50.27;100254.03;5016191;28;20041;-75
2022/07/23 05:35:29;;;;;;;10.45;8.88;;;;;;;25.06;49.85;100250.78;5014834;28;20033;-73
2022/07/23 05:37:56;;;;;;;10.45;8.45;;;;;;;25.27;49.24;100242.44;5016002;28;20064;-72
2022/07/23 05:40:22;;;;;;;12.75;8.57;;;;;;;25.39;49.00;100234.69;5016166;28;20036;-74
2022/07/23 05:42:48;;;;;;;10.88;8.60;;;;;;;25.46;48.53;100239.72;5016387;28;20034;-77
2022/07/23 05:45:14;;;;;;;20.55;9.80;;;;;;;25.46;48.60;100241.84;5015974;28;20033;-76
2022/07/23 05:47:48;;;;;;;18.33;10.15;;;;;;;25.45;48.51;100240.31;5015922;28;20485;-75
2022/07/23 05:50:14;;;;;;;10.30;8.68;;;;;;;25.45;48.04;100234.44;5015229;28;20156;-76
2022/07/23 05:52:41;;;;;;;11.32;8.20;;;;;;;25.42;47.40;100229.81;5013691;28;20037;-76
2022/07/23 05:55:14;;;;;;;13.43;9.05;;;;;;;25.42;47.17;100235.66;4996198;28;20086;-83
2022/07/23 05:57:41;;;;;;;9.07;8.10;;;;;;;25.43;47.07;100231.38;5011219;28;20038;-81
2022/07/23 06:00:08;;;;;;;11.68;8.50;;;;;;;25.57;47.13;100234.75;4983777;28;20444;-80
2022/07/23 06:02:34;;;;;;;17.10;7.95;;;;;;;25.85;46.99;100237.19;5014360;28;20051;-81
2022/07/23 06:05:00;;;;;;;9.18;7.85;;;;;;;26.18;46.16;100243.63;5016003;28;20026;-78
2022/07/23 06:07:25;;;;;;;18.15;8.23;;;;;;;26.50;45.57;100245.56;5014455;28;20034;-78
2022/07/23 06:09:52;;;;;;;14.05;7.63;;;;;;;26.90;44.85;100251.06;5014372;28;20391;-80
2022/07/23 06:12:19;;;;;;;31.40;9.60;;;;;;;27.35;43.99;100258.38;5014769;28;20109;-79
2022/07/23 06:14:44;;;;;;;27.15;10.60;;;;;;;27.86;42.94;100258.00;5017213;28;20048;-79
2022/07/23 06:17:10;;;;;;;12.77;8.68;;;;;;;27.98;42.18;100258.19;4998175;28;20128;-81
2022/07/23 06:19:36;;;;;;;16.45;7.97;;;;;;;27.87;42.22;100256.59;5014126;28;20113;-81
2022/07/23 06:22:02;;;;;;;20.60;8.82;;;;;;;27.81;42.36;100247.31;5016326;28;20116;-81
2022/07/23 06:24:28;;;;;;;12.45;8.13;;;;;;;27.89;41.93;100262.69;5017545;28;20072;-77
2022/07/23 06:26:53;;;;;;;16.05;8.98;;;;;;;27.91;41.63;100256.94;5016942;28;20038;-80
2022/07/23 06:29:21;;;;;;;9.55;8.00;;;;;;;28.09;42.07;100254.66;5014996;28;20018;-76
2022/07/23 06:31:48;;;;;;;12.05;7.28;;;;;;;28.36;41.46;100251.50;5014607;28;20034;-77
2022/07/23 06:34:13;;;;;;;11.68;7.72;;;;;;;28.82;40.92;100243.25;5017366;28;20148;-78
2022/07/23 06:36:38;;;;;;;11.82;7.50;;;;;;;29.29;39.92;100244.44;5015331;28;20117;-77
2022/07/23 06:39:05;;;;;;;11.05;7.75;;;;;;;29.48;38.88;100242.81;5009414;28;20113;-77
2022/07/23 06:41:30;;;;;;;9.75;7.55;;;;;;;29.58;38.20;100244.28;4995418;28;20038;-78
2022/07/23 06:43:57;;;;;;;10.45;8.82;;;;;;;29.72;38.47;100238.63;4995311;28;20030;-85
2022/07/23 06:46:23;;;;;;;10.98;8.32;;;;;;;29.98;37.91;100230.81;4995729;28;20023;-79
2022/07/23 06:48:50;;;;;;;17.55;8.73;;;;;;;30.21;37.17;100222.13;5004847;28;20023;-79
2022/07/23 06:51:15;;;;;;;12.00;8.43;;;;;;;30.47;36.63;100214.22;5000410;28;20063;-76
2022/07/23 06:53:41;;;;;;;13.15;7.57;;;;;;;30.67;36.22;100211.88;4999171;28;20032;-76
2022/07/23 06:56:07;;;;;;;13.57;8.45;;;;;;;31.20;36.10;100207.97;4999413;28;20049;-79
2022/07/23 06:58:34;;;;;;;17.20;7.93;;;;;;;31.67;34.73;100196.84;5013267;28;20030;-81
2022/07/23 07:01:02;;;;;;;10.48;7.72;;;;;;;32.11;34.52;100206.84;4993550;28;20399;-79
2022/07/23 07:03:27;;;;;;;11.25;8.23;;;;;;;32.44;33.88;100200.69;4976807;28;20114;-79
2022/07/23 07:05:53;;;;;;;11.82;8.02;;;;;;;32.67;32.89;100204.28;4993195;28;20050;-77
2022/07/23 07:08:20;;;;;;;8.77;7.70;;;;;;;32.66;33.27;100201.94;4995009;28;20065;-77
2022/07/23 07:10:45;;;;;;;12.52;7.55;;;;;;;32.49;33.25;100206.16;4993287;28;20467;-84
2022/07/23 07:13:12;;;;;;;11.73;8.57;;;;;;;32.02;33.82;100208.56;4993577;28;20022;-78
2022/07/23 07:15:38;;;;;;;9.18;7.35;;;;;;;31.37;34.38;100219.38;4993716;28;20042;-79
2022/07/23 07:18:04;;;;;;;11.93;8.52;;;;;;;31.05;34.77;100220.25;4977008;28;20069;-76
2022/07/23 07:20:30;;;;;;;8.40;7.47;;;;;;;30.97;35.18;100211.66;4995147;28;20105;-77
2022/07/23 07:22:58;;;;;;;9.98;6.97;;;;;;;30.95;35.20;100211.53;4993436;28;20030;-79
2022/07/23 07:25:24;;;;;;;9.73;8.07;;;;;;;31.19;35.23;100214.50;4995069;28;20403;-81
2022/07/23 07:27:49;;;;;;;10.43;7.72;;;;;;;31.48;35.12;100199.31;4991886;28;20168;-79
2022/07/23 07:30:16;;;;;;;10.70;7.88;;;;;;;32.21;34.19;100202.34;5002022;28;20546;-78
2022/07/23 07:32:42;;;;;;;11.18;7.90;;;;;;;33.02;32.70;100195.16;5014070;28;20053;-80
2022/07/23 07:35:08;;;;;;;9.50;7.43;;;;;;;33.52;32.03;100193.41;5013746;28;20060;-80
2022/07/23 07:37:35;;;;;;;10.50;7.50;;;;;;;33.82;31.19;100180.19;4991342;28;20050;-79
2022/07/23 07:40:00;;;;;;;9.85;7.25;;;;;;;33.99;30.94;100184.00;5013490;28;20025;-79
2022/07/23 07:42:27;;;;;;;10.48;6.95;;;;;;;34.15;30.24;100182.66;5012139;28;20112;-75
2022/07/23 07:44:53;;;;;;;8.27;6.88;;;;;;;34.36;30.71;100179.25;5014491;28;20120;-81
2022/07/23 07:47:20;;;;;;;10.68;7.68;;;;;;;34.68;29.63;100183.06;4995636;28;20088;-78
2022/07/23 07:49:46;;;;;;;11.45;7.25;;;;;;;34.85;29.45;100171.97;5013706;28;20036;-75
2022/07/23 07:52:12;;;;;;;7.65;6.90;;;;;;;35.06;28.65;100178.19;5014218;28;20060;-77
2022/07/23 07:54:37;;;;;;;10.20;8.05;;;;;;;35.12;28.30;100171.78;5012451;28;20054;-77
2022/07/23 07:57:02;;;;;;;10.00;7.65;;;;;;;35.21;28.77;100167.75;4996105;28;20038;-77
2022/07/23 07:59:40;;;;;;;11.00;7.25;;;;;;;35.52;28.35;100160.97;5013491;28;20079;-77
2022/07/23 08:02:07;;;;;;;9.48;7.25;;;;;;;35.73;28.83;100171.56;5013829;28;20029;-80
2022/07/23 08:04:32;;;;;;;10.18;8.52;;;;;;;35.80;27.98;100173.34;5014009;28;20033;-79
2022/07/23 08:06:58;;;;;;;8.70;7.15;;;;;;;35.53;27.81;100169.25;5012142;28;20037;-78
2022/07/23 08:09:23;;;;;;;8.43;7.47;;;;;;;35.01;28.21;100158.63;5013845;28;20383;-75
2022/07/23 08:11:51;;;;;;;14.93;8.77;;;;;;;34.36;28.98;100166.63;4995131;28;20089;-76
2022/07/23 08:14:18;;;;;;;10.85;7.95;;;;;;;33.71;30.38;100163.31;5011878;28;20018;-78
2022/07/23 08:16:43;;;;;;;9.23;7.60;;;;;;;33.39;30.46;100168.28;4994807;28;20064;-77
2022/07/23 08:19:10;;;;;;;7.68;6.90;;;;;;;33.37;30.67;100179.28;5011824;28;20030;-76
2022/07/23 08:21:35;;;;;;;9.55;7.47;;;;;;;33.49;31.05;100168.81;5011544;28;20065;-75
2022/07/23 08:24:01;;;;;;;9.50;7.85;;;;;;;33.65;30.55;100171.88;5012084;28;20463;-77
2022/07/23 08:26:27;;;;;;;8.20;7.38;;;;;;;33.93;30.53;100173.34;5013298;28;20044;-76
2022/07/23 08:28:54;;;;;;;9.27;8.18;;;;;;;34.11;30.09;100170.56;4995791;28;20026;-76
2022/07/23 08:31:22;;;;;;;12.82;8.77;;;;;;;34.81;29.16;100177.72;4995719;28;20021;-76
2022/07/23 08:33:48;;;;;;;9.25;8.35;;;;;;;35.05;28.44;100161.03;5013320;28;20052;-76
2022/07/23 08:36:13;;;;;;;9.20;8.30;;;;;;;35.17;28.42;100158.66;5016580;28;20459;-74
2022/07/23 08:38:40;;;;;;;8.80;7.90;;;;;;;35.55;27.67;100162.59;5015418;28;20551;-77
2022/07/23 08:41:07;;;;;;;9.98;7.28;;;;;;;35.84;27.68;100155.72;5016326;28;20475;-77
2022/07/23 08:43:35;;;;;;;10.23;8.05;;;;;;;36.26;27.82;100148.59;5016213;28;20133;-79
2022/07/23 08:46:08;;;;;;;8.82;6.70;;;;;;;36.77;26.70;100148.44;5016562;28;20419;-77
2022/07/23 08:48:36;;;;;;;8.55;7.50;;;;;;;37.10;26.27;100140.75;5015344;28;20055;-78
2022/07/23 08:51:05;;;;;;;8.40;7.25;;;;;;;37.20;26.07;100138.16;4996745;28;20117;-78
2022/07/23 08:53:33;;;;;;;9.52;7.53;;;;;;;37.13;25.65;100133.41;5016706;28;20054;-75
2022/07/23 08:56:10;;;;;;;8.48;7.60;;;;;;;37.01;25.93;100141.91;5015624;28;20037;-74
2022/07/23 08:58:37;;;;;;;10.35;7.57;;;;;;;36.66;26.31;100143.53;5015715;28;20038;-77
2022/07/23 09:01:03;;;;;;;9.02;7.65;;;;;;;36.51;27.21;100147.38;5015863;28;20030;-76
2022/07/23 09:03:35;;;;;;;11.07;7.70;;;;;;;36.26;26.83;100142.63;5015621;28;20029;-77
2022/07/23 09:06:01;;;;;;;8.20;7.30;;;;;;;36.34;26.39;100145.16;4983276;28;20034;-76
2022/07/23 09:08:43;;;;;;;9.18;7.68;;;;;;;36.41;26.25;100141.75;5015420;28;20034;-76
2022/07/23 09:11:17;;;;;;;9.52;7.82;;;;;;;36.40;27.06;100142.44;5015516;28;20032;-77
2022/07/23 09:13:47;;;;;;;8.05;7.25;;;;;;;36.59;26.75;100135.00;4999135;28;20033;-78
2022/07/23 09:16:26;;;;;;;9.27;7.75;;;;;;;36.61;26.46;100132.91;5016519;28;20050;-80
2022/07/23 09:18:52;;;;;;;9.85;7.47;;;;;;;36.34;26.99;100131.03;5016822;28;20471;-78
2022/07/23 09:21:33;;;;;;;8.48;7.65;;;;;;;35.89;27.40;100134.34;5016360;28;20030;-81
2022/07/23 09:24:20;;;;;;;9.55;8.65;;;;;;;35.83;27.35;100131.13;5014729;28;20084;-77
2022/07/23 09:26:51;;;;;;;8.50;7.60;;;;;;;36.12;27.06;100130.13;5015431;28;20080;-82
2022/07/23 09:29:22;;;;;;;9.85;7.32;;;;;;;36.41;27.29;100129.84;5012879;28;20038;-80
2022/07/23 09:32:14;;;;;;;9.83;8.20;;;;;;;36.23;26.79;100125.38;5011105;28;20037;-80
2022/07/23 09:34:49;;;;;;;11.05;7.55;;;;;;;35.88;26.48;100117.19;5015027;28;20288;-82
2022/07/23 09:37:16;;;;;;;8.88;7.90;;;;;;;35.32;27.26;100116.22;5014546;28;20491;-73
2022/07/23 09:39:43;;;;;;;11.10;6.90;;;;;;;34.84;28.18;100114.00;5016212;28;20045;-84
2022/07/23 09:42:23;;;;;;;8.25;7.45;;;;;;;34.45;28.30;100121.06;5013970;28;20103;-80
2022/07/23 09:44:55;;;;;;;9.10;7.28;;;;;;;33.87;29.56;100113.72;5013793;28;20026;-82
2022/07/23 09:47:22;;;;;;;8.73;7.22;;;;;;;33.66;29.23;100123.03;5014656;28;20080;-80
2022/07/23 09:49:57;;;;;;;9.23;7.60;;;;;;;33.63;29.60;100121.34;4997502;28;20034;-82
2022/07/23 09:52:36;;;;;;;7.65;6.95;;;;;;;33.81;29.73;100119.38;5014777;28;20030;-80
2022/07/23 09:55:08;;;;;;;7.97;7.15;;;;;;;33.91;29.38;100125.81;5014619;28;20060;-82
2022/07/23 09:57:39;;;;;;;9.50;6.50;;;;;;;33.75;29.73;100130.91;5015116;28;20034;-80
2022/07/23 10:00:11;;;;;;;9.32;7.18;;;;;;;33.68;29.68;100134.97;5016256;28;20037;-79
2022/07/23 10:02:39;;;;;;;9.48;7.53;;;;;;;33.41;30.63;100141.72;5016073;28;20482;-78
2022/07/23 10:05:07;;;;;;;7.75;7.00;;;;;;;33.23;30.46;100146.66;5017225;28;20033;-79
2022/07/23 10:07:35;;;;;;;7.30;6.60;;;;;;;32.91;31.00;100159.69;5012682;28;20029;-79
2022/07/23 10:10:15;;;;;;;9.55;7.30;;;;;;;32.48;31.65;100166.19;5015629;28;20472;-79
2022/07/23 10:15:09;;;;;;;21.00;8.35;;;;;;;31.42;33.81;100167.97;5021063;28;20045;-79
2022/07/23 10:17:35;;;;;;;16.50;7.47;;;;;;;30.86;34.82;100174.03;5017079;28;20112;-80
2022/07/23 10:20:04;;;;;;;9.00;7.88;;;;;;;30.46;35.63;100174.38;5013760;28;20046;-79
2022/07/23 10:23:09;;;;;;;12.60;8.60;;;;;;;30.40;35.82;100171.78;5018313;28;20038;-79
2022/07/23 10:25:53;;;;;;;24.73;9.20;;;;;;;30.56;35.91;100177.97;4963470;28;20088;-77
2022/07/23 10:29:06;;;;;;;10.82;7.40;;;;;;;30.53;36.13;100182.97;5019727;28;20038;-78
2022/07/23 10:31:45;;;;;;;9.93;7.55;;;;;;;30.17;37.40;100192.34;5016594;28;20049;-77
2022/07/23 10:35:01;;;;;;;9.95;7.35;;;;;;;29.89;37.78;100196.31;5014518;28;20034;-80
2022/07/23 10:37:49;;;;;;;7.50;6.45;;;;;;;29.21;39.01;100201.88;5016798;28;20045;-79
2022/07/23 10:40:22;;;;;;;14.93;7.82;;;;;;;28.99;39.45;100191.41;5016946;28;20054;-75
2022/07/23 10:42:53;;;;;;;6.82;6.13;;;;;;;28.88;39.19;100199.53;5015275;28;20096;-78
2022/07/23 10:45:31;;;;;;;13.75;7.63;;;;;;;28.74;40.39;100215.38;5015610;28;20061;-77
2022/07/23 10:48:14;;;;;;;11.05;7.18;;;;;;;28.55;40.44;100225.03;4965211;28;20054;-79
2022/07/23 10:50:40;;;;;;;14.57;8.98;;;;;;;28.31;43.50;100226.13;4981885;28;543354;-79
2022/07/23 10:53:06;;;;;;;16.88;9.18;;;;;;;28.08;45.67;100231.75;5001191;28;20459;-78
2022/07/23 10:55:35;;;;;;;13.13;8.25;;;;;;;27.76;48.46;100239.59;5014713;28;20117;-78
2022/07/23 10:58:02;;;;;;;12.63;8.50;;;;;;;27.38;50.86;100252.03;5015670;28;20540;-79
2022/07/23 11:00:34;;;;;;;10.15;8.80;;;;;;;26.89;54.68;100259.09;5007405;28;20038;-76
2022/07/23 11:03:08;;;;;;;18.52;8.90;;;;;;;26.39;57.24;100273.25;4985653;28;20030;-75
2022/07/23 11:05:46;;;;;;;16.50;9.15;;;;;;;26.10;58.86;100281.78;4978487;28;20448;-76
2022/07/23 11:08:16;;;;;;;13.40;9.35;;;;;;;25.88;59.47;100277.75;4993992;28;20035;-75
2022/07/23 11:11:23;;;;;;;11.25;8.93;;;;;;;25.67;60.21;100271.53;5005861;28;20037;-77
2022/07/23 11:13:49;;;;;;;15.25;10.35;;;;;;;25.40;62.98;100283.06;4982031;28;20060;-75
2022/07/23 11:16:19;;;;;;;13.25;10.23;;;;;;;25.36;63.20;100273.94;4993059;28;20049;-80
2022/07/23 11:18:56;;;;;;;13.93;9.20;;;;;;;25.38;62.48;100265.31;4993521;28;20073;-77
2022/07/23 11:21:32;;;;;;;12.20;8.50;;;;;;;25.38;61.08;100270.44;5013999;28;20541;-75
2022/07/23 11:24:08;;;;;;;12.77;8.80;;;;;;;25.26;62.99;100254.72;5014361;28;20042;-75
2022/07/23 11:26:37;;;;;;;11.13;8.52;;;;;;;25.23;62.17;100242.09;5015155;28;20060;-75